Time;durP1;ratioP1;P1;durP2;ratioP2;P2;SDS_P1;SDS_P2;PMS_P1;PMS_P2;Temp;Humidity;BMP_temperature;BMP_pressure;BME280_temperature;BME280_humidity;BME280_pressure;Samples;Min_cycle;Max_cycle;Signal;HPM_P1;HPM_P2
2020/12/14 00:00:14;;;;;;;170.15;54.73;;;;;;;3.66;81.73;100730.51;1682561;82;26182;-63
2020/12/14 00:02:42;;;;;;;182.32;56.15;;;;;;;3.64;81.68;100732.75;1720593;80;26197;-62
2020/12/14 00:05:11;;;;;;;167.30;53.55;;;;;;;3.67;81.83;100735.36;1733205;80;27532;-62
2020/12/14 00:07:39;;;;;;;169.17;55.55;;;;;;;3.66;81.81;100734.48;1723798;80;25817;-62
2020/12/14 00:10:07;;;;;;;173.05;56.60;;;;;;;3.68;81.79;100742.41;1703008;82;26584;-63
2020/12/14 00:12:35;;;;;;;182.07;58.42;;;;;;;3.62;81.72;100744.70;1693597;82;26282;-63
2020/12/14 00:15:05;;;;;;;181.30;56.45;;;;;;;3.58;81.78;100743.86;1703944;83;25836;-62
2020/12/14 00:17:33;;;;;;;172.93;54.90;;;;;;;3.58;81.86;100739.89;1702877;81;25859;-61
2020/12/14 00:20:03;;;;;;;168.22;55.67;;;;;;;3.56;81.83;100745.66;1714878;81;26624;-62
2020/12/14 00:22:33;;;;;;;171.02;57.03;;;;;;;3.55;81.82;100751.85;1703663;81;25735;-62
2020/12/14 00:25:03;;;;;;;175.57;56.65;;;;;;;3.56;81.95;100761.56;1727405;81;26166;-64
2020/12/14 00:27:30;;;;;;;164.60;53.50;;;;;;;3.56;81.93;100760.68;1710743;81;25840;-61
2020/12/14 00:29:58;;;;;;;186.45;56.60;;;;;;;3.59;82.02;100753.56;1695487;81;27791;-62
2020/12/14 00:32:26;;;;;;;169.72;53.65;;;;;;;3.57;81.90;100753.16;1707546;81;25778;-75
2020/12/14 00:34:54;;;;;;;171.93;54.88;;;;;;;3.59;82.04;100764.16;1730697;80;25914;-75
2020/12/14 00:37:21;;;;;;;175.35;55.60;;;;;;;3.58;82.00;100765.06;1723418;81;26091;-76
2020/12/14 00:39:49;;;;;;;188.20;57.00;;;;;;;3.58;82.04;100769.04;1712367;81;25856;-75
2020/12/14 00:42:17;;;;;;;185.30;60.35;;;;;;;3.56;82.12;100764.20;1700482;81;27894;-74
2020/12/14 00:44:46;;;;;;;181.57;58.78;;;;;;;3.58;82.07;100765.52;1706673;82;25918;-74
2020/12/14 00:47:17;;;;;;;167.40;57.35;;;;;;;3.58;82.17;100773.02;1701903;81;25841;-74
2020/12/14 00:49:44;;;;;;;165.55;56.73;;;;;;;3.56;82.11;100765.53;1723996;81;26296;-77
2020/12/14 00:52:13;;;;;;;195.70;58.98;;;;;;;3.61;82.34;100765.92;1688689;83;25958;-74
2020/12/14 00:54:41;;;;;;;173.62;56.55;;;;;;;3.65;82.25;100764.98;1688892;81;27046;-74
2020/12/14 00:57:09;;;;;;;185.03;59.85;;;;;;;3.64;82.15;100763.23;1694209;83;25798;-75
2020/12/14 00:59:37;;;;;;;185.00;58.42;;;;;;;3.61;82.20;100764.14;1702132;81;25888;-74
2020/12/14 01:02:04;;;;;;;178.85;55.98;;;;;;;3.63;82.26;100768.11;1736362;80;26328;-74
2020/12/14 01:04:32;;;;;;;185.03;57.10;;;;;;;3.68;82.34;100772.89;1700820;81;25820;-62
2020/12/14 01:07:00;;;;;;;184.97;60.83;;;;;;;3.69;82.30;100763.59;1695735;81;28366;-62
2020/12/14 01:09:29;;;;;;;183.27;59.53;;;;;;;3.70;82.36;100775.95;1697158;81;26634;-62
2020/12/14 01:12:01;;;;;;;186.28;59.63;;;;;;;3.71;82.37;100783.45;1729085;81;26533;-62
2020/12/14 01:14:28;;;;;;;181.93;57.50;;;;;;;3.68;82.36;100776.42;1714123;80;26715;-63
2020/12/14 01:16:56;;;;;;;180.32;58.20;;;;;;;3.68;82.36;100774.22;1733416;81;25870;-62
2020/12/14 01:19:24;;;;;;;193.43;58.08;;;;;;;3.66;82.32;100778.67;1704774;81;28607;-62
2020/12/14 01:21:52;;;;;;;187.10;61.15;;;;;;;3.66;82.41;100773.37;1697201;82;25916;-61
2020/12/14 01:24:20;;;;;;;177.43;57.23;;;;;;;3.68;82.46;100775.09;1738082;80;25800;-61
2020/12/14 01:26:47;;;;;;;171.95;58.45;;;;;;;3.73;82.52;100775.91;1741632;80;25862;-61
2020/12/14 01:29:15;;;;;;;184.78;57.03;;;;;;;3.72;82.43;100774.61;1692061;82;25937;-61
2020/12/14 01:31:43;;;;;;;188.03;60.12;;;;;;;3.74;82.52;100774.14;1730691;80;27753;-63
2020/12/14 01:34:10;;;;;;;203.07;60.73;;;;;;;3.77;82.52;100771.00;1756136;80;25908;-63
2020/12/14 01:36:38;;;;;;;194.52;60.75;;;;;;;3.76;82.49;100778.52;1740116;79;26194;-62
2020/12/14 01:39:07;;;;;;;174.30;56.63;;;;;;;3.82;82.62;100780.22;1695137;82;25948;-64
2020/12/14 01:41:35;;;;;;;177.87;59.95;;;;;;;3.85;82.61;100778.84;1708937;81;26513;-63
2020/12/14 01:44:02;;;;;;;190.05;57.55;;;;;;;3.85;82.66;100775.75;1701370;80;27363;-62
2020/12/14 01:46:31;;;;;;;184.35;55.50;;;;;;;3.89;82.70;100780.11;1710668;80;25844;-62
2020/12/14 01:49:00;;;;;;;166.75;55.88;;;;;;;3.92;82.61;100779.19;1736696;81;25795;-62
2020/12/14 01:51:30;;;;;;;181.85;57.43;;;;;;;3.84;82.46;100769.14;1725526;81;25743;-62
2020/12/14 01:54:03;;;;;;;172.60;54.77;;;;;;;3.83;82.54;100774.89;1744112;80;25841;-61
2020/12/14 01:56:30;;;;;;;191.65;57.70;;;;;;;3.81;82.54;100774.03;1715628;80;27777;-62
2020/12/14 01:58:58;;;;;;;190.30;59.75;;;;;;;3.80;82.55;100780.69;1758453;80;26047;-62
2020/12/14 02:01:28;;;;;;;181.37;57.58;;;;;;;3.80;82.61;100774.06;1716249;80;25824;-62
2020/12/14 02:03:55;;;;;;;179.97;57.58;;;;;;;3.84;82.69;100773.12;1692299;82;26651;-63
2020/12/14 02:06:23;;;;;;;173.40;60.43;;;;;;;3.84;82.61;100782.39;1711192;81;26274;-63
2020/12/14 02:08:51;;;;;;;178.82;58.02;;;;;;;3.84;82.75;100780.63;1709914;81;26554;-61
2020/12/14 02:14:01;;;;;;;165.82;57.20;;;;;;;3.85;82.70;100786.36;1819686;76;25778;-62
2020/12/14 02:16:28;;;;;;;171.37;57.60;;;;;;;3.79;82.68;100782.46;1776495;77;25815;-62
2020/12/14 02:18:58;;;;;;;182.43;58.28;;;;;;;3.79;82.67;100779.81;1761420;78;27797;-61
2020/12/14 02:21:25;;;;;;;172.80;55.70;;;;;;;3.80;82.76;100771.41;1766265;77;26328;-61
2020/12/14 02:23:54;;;;;;;170.55;58.25;;;;;;;3.84;82.84;100766.04;1775581;78;26156;-62
2020/12/14 02:26:22;;;;;;;183.68;54.93;;;;;;;3.86;82.73;100758.06;1776096;77;26453;-62
2020/12/14 02:28:49;;;;;;;169.40;57.53;;;;;;;3.84;82.64;100762.52;1714714;80;25847;-62
2020/12/14 02:31:18;;;;;;;168.93;57.03;;;;;;;3.83;82.72;100766.06;1700781;80;27987;-63
2020/12/14 02:33:48;;;;;;;170.50;58.05;;;;;;;3.85;82.76;100761.61;1711057;81;25927;-63
2020/12/14 02:36:16;;;;;;;175.90;58.25;;;;;;;3.83;82.75;100763.41;1725216;79;26710;-62
2020/12/14 02:38:43;;;;;;;178.90;59.25;;;;;;;3.82;82.73;100769.61;1716784;79;26060;-62
2020/12/14 02:41:13;;;;;;;171.22;57.05;;;;;;;3.80;82.76;100770.08;1727551;80;25899;-62
2020/12/14 02:43:41;;;;;;;176.25;55.80;;;;;;;3.81;82.80;100770.06;1769107;77;26926;-62
2020/12/14 02:46:09;;;;;;;177.75;58.15;;;;;;;3.79;82.68;100767.00;1714558;80;25798;-62
2020/12/14 02:48:37;;;;;;;165.20;55.52;;;;;;;3.80;82.82;100772.28;1724520;79;25926;-62
2020/12/14 02:51:05;;;;;;;178.10;56.60;;;;;;;3.81;82.79;100770.51;1716046;81;26337;-62
2020/12/14 02:53:34;;;;;;;178.00;58.28;;;;;;;3.82;82.75;100772.27;1769078;77;26399;-63
2020/12/14 02:56:06;;;;;;;173.13;59.75;;;;;;;3.80;82.76;100766.11;1764843;79;27706;-62
2020/12/14 02:58:33;;;;;;;184.05;59.95;;;;;;;3.85;82.92;100773.09;1783492;77;25839;-62
2020/12/14 03:01:02;;;;;;;191.85;59.10;;;;;;;3.86;82.87;100778.83;1769356;77;26037;-62
2020/12/14 03:03:30;;;;;;;192.85;58.45;;;;;;;3.82;82.81;100771.81;1784990;77;25824;-62
2020/12/14 03:05:58;;;;;;;210.57;63.13;;;;;;;3.80;82.77;100780.23;1769904;79;25819;-62
2020/12/14 03:08:26;;;;;;;192.05;57.65;;;;;;;3.78;82.78;100780.70;1766548;77;27354;-62
2020/12/14 03:10:53;;;;;;;186.77;61.58;;;;;;;3.77;82.81;100778.08;1781680;79;26075;-62
2020/12/14 03:13:21;;;;;;;193.20;58.70;;;;;;;3.78;82.85;100778.05;1717965;80;25987;-62
2020/12/14 03:15:49;;;;;;;208.97;63.63;;;;;;;3.83;83.00;100780.64;1700693;81;25782;-61
2020/12/14 03:18:16;;;;;;;198.80;62.13;;;;;;;3.88;82.94;100790.73;1716700;79;26214;-61
2020/12/14 03:20:45;;;;;;;224.25;65.12;;;;;;;3.85;82.88;100788.12;1722493;81;27956;-62
2020/12/14 03:23:16;;;;;;;202.03;61.65;;;;;;;3.85;82.93;100785.48;1727908;79;25898;-62
2020/12/14 03:25:44;;;;;;;218.27;65.28;;;;;;;3.83;82.88;100781.97;1701072;81;25802;-63
2020/12/14 03:28:12;;;;;;;210.68;63.78;;;;;;;3.82;82.95;100786.39;1773163;77;25807;-63
2020/12/14 03:30:40;;;;;;;215.00;63.45;;;;;;;3.80;82.88;100785.54;1698164;82;25868;-62
2020/12/14 03:33:08;;;;;;;218.65;63.02;;;;;;;3.80;82.90;100784.22;1710172;80;27733;-62
2020/12/14 03:35:35;;;;;;;213.47;63.42;;;;;;;3.78;82.87;100782.03;1713779;79;26329;-62
2020/12/14 03:38:03;;;;;;;215.60;64.55;;;;;;;3.81;83.01;100783.31;1707591;81;25853;-62
2020/12/14 03:40:31;;;;;;;209.10;67.55;;;;;;;3.84;82.97;100784.60;1722218;81;25793;-61
2020/12/14 03:42:58;;;;;;;226.27;63.28;;;;;;;3.88;83.07;100785.44;1714736;82;25712;-61
2020/12/14 03:45:26;;;;;;;225.55;67.37;;;;;;;3.86;82.92;100782.80;1736637;81;28015;-61
2020/12/14 03:47:54;;;;;;;222.75;66.07;;;;;;;3.83;82.95;100783.30;1714695;82;25753;-61
2020/12/14 03:50:22;;;;;;;213.62;63.90;;;;;;;3.83;83.07;100780.20;1736517;81;25964;-61
2020/12/14 03:52:50;;;;;;;224.88;68.57;;;;;;;3.86;83.06;100780.16;1714597;82;25846;-61
2020/12/14 03:55:17;;;;;;;211.10;61.02;;;;;;;3.86;83.05;100777.50;1730855;79;25765;-61
2020/12/14 03:57:45;;;;;;;206.72;62.27;;;;;;;3.87;82.98;100776.60;1760940;79;27273;-61
2020/12/14 04:00:13;;;;;;;214.45;62.33;;;;;;;3.88;83.04;100777.48;1754478;77;25871;-61
2020/12/14 04:02:40;;;;;;;218.12;62.60;;;;;;;3.90;83.02;100778.34;1791141;77;25774;-61
2020/12/14 04:05:08;;;;;;;213.92;61.65;;;;;;;3.92;83.08;100779.19;1753947;79;25816;-61
2020/12/14 04:07:36;;;;;;;216.60;64.25;;;;;;;3.96;83.11;100783.55;1754141;77;25857;-61
2020/12/14 04:10:04;;;;;;;212.32;61.00;;;;;;;3.98;83.10;100785.73;1761994;79;27651;-61
2020/12/14 04:12:32;;;;;;;237.27;66.50;;;;;;;3.98;83.09;100777.78;1759888;77;26459;-61
2020/12/14 04:14:59;;;;;;;239.75;65.50;;;;;;;3.96;83.09;100786.20;1773996;79;25770;-62
2020/12/14 04:17:27;;;;;;;232.32;63.92;;;;;;;3.96;83.13;100788.86;1770119;77;26666;-62
2020/12/14 04:19:56;;;;;;;244.68;68.05;;;;;;;3.96;83.10;100804.77;1778229;79;25908;-62
2020/12/14 04:22:24;;;;;;;234.98;63.10;;;;;;;3.95;83.09;100800.36;1760322;77;27381;-61
2020/12/14 04:24:51;;;;;;;229.28;62.40;;;;;;;3.95;83.01;100806.99;1773243;79;25989;-61
2020/12/14 04:27:20;;;;;;;238.97;62.98;;;;;;;3.95;83.14;100804.34;1768535;77;25853;-61
2020/12/14 04:29:47;;;;;;;240.75;65.47;;;;;;;3.98;83.14;100809.60;1775456;77;25919;-61
2020/12/14 04:32:15;;;;;;;250.07;69.77;;;;;;;3.99;83.04;100803.84;1714497;80;25776;-62
2020/12/14 04:34:43;;;;;;;226.32;67.20;;;;;;;3.93;83.04;100803.48;1710124;81;28433;-62
2020/12/14 04:37:10;;;;;;;259.70;66.65;;;;;;;3.96;83.17;100802.12;1693973;82;25858;-62
2020/12/14 04:39:38;;;;;;;243.25;68.62;;;;;;;3.96;83.20;100809.20;1722375;79;25950;-65
2020/12/14 04:42:06;;;;;;;255.77;66.72;;;;;;;4.01;83.20;100810.01;1720960;81;25885;-63
2020/12/14 04:44:36;;;;;;;251.98;63.78;;;;;;;4.02;83.16;100807.34;1712714;79;25765;-61
2020/12/14 04:47:05;;;;;;;253.25;66.20;;;;;;;4.03;83.09;100808.21;1724111;81;27430;-61
2020/12/14 04:49:33;;;;;;;240.55;65.83;;;;;;;4.00;83.17;100814.44;1697234;79;26615;-63
2020/12/14 04:52:02;;;;;;;247.50;66.87;;;;;;;4.01;83.11;100823.27;1718897;80;25934;-62
2020/12/14 04:54:30;;;;;;;262.35;64.70;;;;;;;4.02;83.16;100818.39;1709893;79;25919;-63
2020/12/14 04:57:08;;;;;;;236.43;65.42;;;;;;;4.01;83.08;100815.31;1707797;81;26537;-63
2020/12/14 04:59:36;;;;;;;241.42;64.25;;;;;;;3.98;83.11;100821.53;1719282;81;25756;-63
2020/12/14 05:02:10;;;;;;;248.35;67.00;;;;;;;3.98;83.14;100816.23;1729700;81;26093;-63
2020/12/14 05:04:40;;;;;;;248.82;67.58;;;;;;;3.98;83.19;100818.89;1729691;81;25761;-62
2020/12/14 05:07:07;;;;;;;247.45;66.10;;;;;;;4.00;83.17;100817.54;1729870;81;26082;-62
2020/12/14 05:09:35;;;;;;;242.62;65.28;;;;;;;3.99;83.15;100819.31;1729665;81;25709;-62
2020/12/14 05:12:16;;;;;;;252.00;64.32;;;;;;;3.99;83.18;100819.31;1729625;81;27575;-62
2020/12/14 05:14:44;;;;;;;240.22;64.72;;;;;;;4.03;83.23;100820.15;1729696;81;25710;-62
2020/12/14 05:17:23;;;;;;;232.50;64.87;;;;;;;4.00;83.09;100827.70;1729711;81;25674;-62
2020/12/14 05:19:52;;;;;;;265.43;68.00;;;;;;;4.02;83.21;100832.98;1730642;81;25572;-62
2020/12/14 05:22:19;;;;;;;255.12;68.87;;;;;;;4.07;83.27;100833.34;1729963;81;25794;-62
2020/12/14 05:24:51;;;;;;;242.37;65.05;;;;;;;4.09;83.30;100832.88;1729736;81;27823;-62
2020/12/14 05:27:34;;;;;;;244.35;65.45;;;;;;;4.10;83.26;100841.27;1729591;81;25781;-62
2020/12/14 05:30:14;;;;;;;253.83;68.72;;;;;;;4.10;83.17;100840.38;1729887;81;25786;-62
2020/12/14 05:32:42;;;;;;;254.82;67.67;;;;;;;4.04;83.04;100847.09;1785088;79;26142;-62
2020/12/14 05:35:11;;;;;;;253.00;66.47;;;;;;;4.00;83.14;100851.56;1784993;79;25701;-62
2020/12/14 05:37:40;;;;;;;239.88;68.20;;;;;;;4.01;83.24;100852.45;1784967;79;27804;-62
2020/12/14 05:40:11;;;;;;;227.25;65.85;;;;;;;4.06;83.32;100854.59;1784995;79;25994;-64
2020/12/14 05:42:42;;;;;;;256.85;70.10;;;;;;;4.09;83.34;100851.45;1784932;79;25760;-62
2020/12/14 05:45:12;;;;;;;227.18;64.77;;;;;;;4.10;83.28;100852.32;1784601;79;25707;-62
2020/12/14 05:47:43;;;;;;;234.45;64.97;;;;;;;4.09;83.23;100840.83;1784685;79;25681;-62
2020/12/14 05:50:11;;;;;;;;;;;;;;;4.05;83.12;100839.12;1787397;79;26958;-62
2020/12/14 05:52:48;;;;;;;232.52;67.58;;;;;;;4.04;83.23;100842.67;1784536;79;26137;-62
2020/12/14 05:55:22;;;;;;;240.15;67.00;;;;;;;4.04;83.16;100837.81;1783492;77;25670;-62
2020/12/14 05:57:51;;;;;;;238.40;63.20;;;;;;;4.03;83.20;100834.28;1756274;79;26347;-62
2020/12/14 06:00:19;;;;;;;237.12;63.45;;;;;;;4.08;83.28;100838.20;1761514;77;26511;-62
2020/12/14 06:02:49;;;;;;;228.67;68.02;;;;;;;4.14;83.30;100836.34;1766791;79;26941;-63
2020/12/14 06:05:19;;;;;;;218.75;66.42;;;;;;;4.14;83.28;100839.44;1762306;77;26613;-63
2020/12/14 06:07:52;;;;;;;225.35;66.17;;;;;;;4.13;83.22;100835.91;1755659;79;26602;-63
2020/12/14 06:10:23;;;;;;;228.07;70.52;;;;;;;4.13;83.24;100838.56;1764493;77;26334;-62
2020/12/14 06:12:55;;;;;;;212.60;66.22;;;;;;;4.11;83.17;100839.03;1695119;80;25964;-62
2020/12/14 06:15:25;;;;;;;214.10;65.12;;;;;;;4.11;83.18;100834.18;1696807;80;27935;-62
2020/12/14 06:18:17;;;;;;;218.67;63.10;;;;;;;4.09;83.11;100836.86;1720138;81;25993;-62
2020/12/14 06:20:45;;;;;;;231.25;64.80;;;;;;;4.08;83.15;100832.45;1741538;80;25773;-61
2020/12/14 06:23:15;;;;;;;219.93;63.50;;;;;;;4.08;83.14;100840.41;1720804;79;25768;-61
2020/12/14 06:25:45;;;;;;;207.75;64.00;;;;;;;4.12;83.20;100836.81;1720156;81;25775;-61
2020/12/14 06:28:31;;;;;;;212.25;65.97;;;;;;;4.17;83.27;100839.40;1747309;79;26027;-61
2020/12/14 06:31:00;;;;;;;233.97;67.42;;;;;;;4.17;83.19;100840.73;1730900;81;25935;-61
2020/12/14 06:33:39;;;;;;;224.98;66.20;;;;;;;4.14;83.15;100843.42;1752447;79;26628;-62
2020/12/14 06:36:20;;;;;;;221.65;66.60;;;;;;;4.13;83.15;100842.55;1723975;80;25798;-62
2020/12/14 06:38:52;;;;;;;217.23;64.97;;;;;;;4.12;83.20;100847.42;1737911;80;25768;-62
2020/12/14 06:41:23;;;;;;;212.70;62.60;;;;;;;4.10;83.09;100849.67;1730431;79;26398;-60
2020/12/14 06:44:06;;;;;;;212.78;66.75;;;;;;;4.05;83.06;100856.36;1728158;80;25967;-61
2020/12/14 06:46:35;;;;;;;190.53;62.48;;;;;;;4.05;83.11;100860.79;1749313;78;26380;-61
2020/12/14 06:49:03;;;;;;;196.57;62.33;;;;;;;4.04;83.09;100863.89;1755554;79;26391;-62
2020/12/14 06:51:54;;;;;;;193.28;66.60;;;;;;;4.04;83.13;100868.31;1757501;78;25916;-62
2020/12/14 06:54:43;;;;;;;215.68;66.82;;;;;;;4.03;83.14;100867.44;1724761;80;33630;-61
2020/12/14 06:57:13;;;;;;;222.02;68.15;;;;;;;4.01;83.17;100862.60;1763117;78;26542;-61
2020/12/14 06:59:53;;;;;;;211.83;66.33;;;;;;;4.03;83.26;100846.67;1788795;77;26185;-64
2020/12/14 07:02:41;;;;;;;208.38;64.65;;;;;;;4.07;83.30;100845.73;1809088;77;25952;-62
2020/12/14 07:05:33;;;;;;;218.52;65.37;;;;;;;4.13;83.32;100853.61;1792350;78;25727;-62
2020/12/14 07:08:02;;;;;;;211.80;63.98;;;;;;;4.20;83.38;100857.92;1778349;78;28245;-62
2020/12/14 07:10:31;;;;;;;199.72;65.47;;;;;;;4.18;83.14;100855.30;1759461;78;26544;-62
2020/12/14 07:13:00;;;;;;;202.28;64.82;;;;;;;4.14;83.21;100860.22;1757128;78;25877;-62
2020/12/14 07:15:33;;;;;;;208.15;66.72;;;;;;;4.14;83.15;100861.99;1780275;78;25952;-62
2020/12/14 07:18:09;;;;;;;207.30;66.37;;;;;;;4.15;83.23;100867.72;1770607;78;25897;-62
2020/12/14 07:20:47;;;;;;;217.65;65.83;;;;;;;4.12;83.22;100871.30;1742462;78;29636;-62
2020/12/14 07:23:15;;;;;;;207.85;65.15;;;;;;;4.12;83.24;100873.95;1732899;78;25826;-62
2020/12/14 07:25:47;;;;;;;213.80;63.38;;;;;;;4.16;83.40;100871.69;1754457;79;25769;-61
2020/12/14 07:28:15;;;;;;;207.52;63.17;;;;;;;4.20;83.32;100885.33;1748439;78;26311;-62
2020/12/14 07:30:43;;;;;;;199.10;65.70;;;;;;;4.19;83.26;100882.25;1761381;79;26057;-61
2020/12/14 07:33:11;;;;;;;218.52;67.30;;;;;;;4.21;83.30;100883.56;1764923;79;28492;-61
2020/12/14 07:35:39;;;;;;;198.32;64.80;;;;;;;4.22;83.30;100885.31;1756251;79;25785;-61
2020/12/14 07:38:11;;;;;;;211.45;68.97;;;;;;;4.25;83.37;100886.59;1781021;79;26373;-61
2020/12/14 07:40:39;;;;;;;232.15;70.45;;;;;;;4.23;83.30;100899.89;1788491;78;26455;-62
2020/12/14 07:43:07;;;;;;;218.48;68.60;;;;;;;4.18;83.25;100907.03;1785786;78;25866;-61
2020/12/14 07:45:35;;;;;;;227.47;72.32;;;;;;;4.21;83.33;100899.03;1780597;77;25899;-61
2020/12/14 07:48:02;;;;;;;214.63;67.32;;;;;;;4.19;83.26;100906.58;1761643;79;25866;-61
2020/12/14 07:50:30;;;;;;;205.52;64.77;;;;;;;4.18;83.36;100901.72;1765569;78;25780;-61
2020/12/14 07:53:02;;;;;;;200.13;64.67;;;;;;;4.20;83.38;100901.25;1757280;79;26596;-60
2020/12/14 07:55:31;;;;;;;206.13;64.47;;;;;;;4.23;83.37;100901.66;1764731;78;26422;-61
2020/12/14 07:57:59;;;;;;;201.88;66.25;;;;;;;4.23;83.32;100902.54;1780489;78;27974;-61
2020/12/14 08:00:27;;;;;;;202.82;65.80;;;;;;;4.24;83.26;100902.97;1760035;78;25994;-61
2020/12/14 08:03:00;;;;;;;235.25;75.08;;;;;;;4.21;83.27;100897.70;1776331;78;25844;-61
2020/12/14 08:05:24;;;;;;;233.90;74.72;;;;;;;4.20;83.44;100897.27;1755639;78;25806;-62
2020/12/14 08:08:05;;;;;;;222.48;73.57;;;;;;;4.20;83.42;100898.60;1764255;79;26105;-62
2020/12/14 08:10:34;;;;;;;225.45;68.12;;;;;;;4.26;83.52;100887.03;1764607;78;25799;-62
2020/12/14 08:13:09;;;;;;;209.87;66.97;;;;;;;4.32;83.50;100888.27;1786247;78;25816;-62
2020/12/14 08:15:38;;;;;;;216.30;68.07;;;;;;;4.31;83.43;100889.62;1759479;78;26708;-62
2020/12/14 08:18:07;;;;;;;212.05;67.92;;;;;;;4.35;83.50;100884.70;1765945;79;26750;-62
2020/12/14 08:20:43;;;;;;;224.18;78.33;;;;;;;4.38;83.57;100881.55;1782912;78;26209;-62
2020/12/14 08:23:21;;;;;;;229.95;75.55;;;;;;;4.44;83.57;100869.97;1765514;79;26069;-62
2020/12/14 08:25:52;;;;;;;231.05;69.62;;;;;;;4.50;83.66;100873.41;1749702;78;25849;-62
2020/12/14 08:28:34;;;;;;;208.13;62.78;;;;;;;4.53;83.58;100884.43;1765469;78;25928;-62
2020/12/14 08:31:05;;;;;;;224.90;69.87;;;;;;;4.57;83.60;100878.17;1760735;79;25873;-63
2020/12/14 08:33:51;;;;;;;225.25;71.50;;;;;;;4.56;83.53;100880.41;1760814;78;25915;-64
2020/12/14 08:36:20;;;;;;;228.75;71.92;;;;;;;4.57;83.48;100875.52;1786069;78;27588;-63
2020/12/14 08:38:50;;;;;;;237.82;77.42;;;;;;;4.59;83.51;100881.69;1749049;79;26140;-63
2020/12/14 08:41:22;;;;;;;235.20;71.20;;;;;;;4.81;84.10;100877.80;1765934;78;25843;-63
2020/12/14 08:43:54;;;;;;;208.23;67.65;;;;;;;4.98;83.97;100876.64;1756289;79;26500;-62
2020/12/14 08:46:28;;;;;;;215.65;69.27;;;;;;;5.12;84.02;100881.27;1761449;78;25819;-62
2020/12/14 08:49:01;;;;;;;174.57;60.80;;;;;;;5.17;83.62;100887.38;1764415;79;26146;-63
2020/12/14 08:51:33;;;;;;;213.25;64.72;;;;;;;5.11;83.43;100891.47;1763390;78;26447;-62
2020/12/14 08:54:18;;;;;;;198.97;66.82;;;;;;;5.04;83.39;100889.82;1752203;78;25871;-65
2020/12/14 08:56:47;;;;;;;191.32;63.92;;;;;;;4.99;83.44;100890.34;1761323;79;25805;-62
2020/12/14 08:59:17;;;;;;;219.97;67.90;;;;;;;4.92;83.44;100889.58;1757949;78;25729;-63
2020/12/14 09:02:00;;;;;;;202.40;62.88;;;;;;;4.90;83.52;100883.41;1760233;79;25956;-62
2020/12/14 09:04:39;;;;;;;202.72;60.63;;;;;;;4.86;83.56;100885.23;1759339;78;26086;-61
2020/12/14 09:07:12;;;;;;;187.90;55.03;;;;;;;4.92;83.64;100887.37;1758853;78;25849;-62
2020/12/14 09:09:40;;;;;;;194.93;59.10;;;;;;;4.98;83.65;100884.61;1759488;79;26519;-61
2020/12/14 09:12:13;;;;;;;192.68;58.65;;;;;;;4.98;83.63;100884.16;1758621;79;26037;-61
2020/12/14 09:14:41;;;;;;;208.57;62.23;;;;;;;5.03;83.62;100883.63;1763567;79;28659;-62
2020/12/14 09:17:21;;;;;;;222.35;66.45;;;;;;;5.07;83.67;100877.81;1784279;78;26391;-64
2020/12/14 09:19:51;;;;;;;220.05;72.03;;;;;;;5.06;83.56;100885.36;1783836;78;27157;-64
2020/12/14 09:22:26;;;;;;;188.80;56.37;;;;;;;5.03;83.52;100890.27;1767852;78;26237;-61
2020/12/14 09:24:54;;;;;;;182.88;58.20;;;;;;;5.00;83.54;100890.78;1756527;79;25781;-63
2020/12/14 09:27:22;;;;;;;180.93;60.65;;;;;;;5.01;83.62;100895.19;1756920;78;26014;-63
2020/12/14 09:29:50;;;;;;;195.55;58.45;;;;;;;4.99;83.54;100894.33;1765547;79;25961;-63
2020/12/14 09:32:18;;;;;;;183.07;58.08;;;;;;;4.97;83.57;100894.81;1783416;78;25875;-63
2020/12/14 09:34:46;;;;;;;192.28;57.67;;;;;;;4.96;83.54;100891.73;1770380;79;25925;-61
2020/12/14 09:37:14;;;;;;;180.25;55.60;;;;;;;4.91;83.45;100887.81;1769971;78;26590;-62
2020/12/14 09:39:43;;;;;;;194.32;59.85;;;;;;;4.92;83.60;100884.71;1769912;78;27639;-61
2020/12/14 09:42:11;;;;;;;195.57;59.98;;;;;;;4.91;83.52;100889.59;1759255;77;26401;-62
2020/12/14 09:44:39;;;;;;;180.45;58.40;;;;;;;4.91;83.64;100889.59;1753891;79;25915;-64
2020/12/14 09:47:09;;;;;;;191.70;61.18;;;;;;;4.93;83.65;100890.45;1763407;79;26237;-62
2020/12/14 09:49:37;;;;;;;188.65;59.13;;;;;;;4.96;83.66;100875.79;1753014;78;26034;-62
2020/12/14 09:52:04;;;;;;;188.75;61.53;;;;;;;4.97;83.62;100876.22;1754752;80;26337;-62
2020/12/14 09:54:32;;;;;;;189.15;60.60;;;;;;;5.03;83.70;100866.81;1759470;78;26467;-62
2020/12/14 09:57:00;;;;;;;179.42;59.23;;;;;;;5.08;83.67;100865.83;1756896;80;25918;-62
2020/12/14 09:59:28;;;;;;;198.82;61.42;;;;;;;5.15;83.70;100865.27;1753381;79;25914;-62
2020/12/14 10:01:56;;;;;;;187.45;60.35;;;;;;;5.24;83.87;100862.42;1763276;77;26390;-62
2020/12/14 10:04:26;;;;;;;184.13;58.58;;;;;;;5.35;83.84;100863.09;1772963;76;27712;-62
2020/12/14 10:06:53;;;;;;;181.37;54.40;;;;;;;5.42;83.70;100859.42;1742594;78;25880;-62
2020/12/14 10:09:21;;;;;;;176.20;52.58;;;;;;;5.44;83.70;100853.63;1735169;79;25826;-64
2020/12/14 10:11:49;;;;;;;170.25;53.65;;;;;;;5.46;83.63;100853.59;1764650;78;25848;-64
2020/12/14 10:14:16;;;;;;;158.10;52.10;;;;;;;5.51;83.60;100851.73;1743019;79;25964;-64
2020/12/14 10:16:48;;;;;;;165.25;56.30;;;;;;;5.55;83.64;100846.77;1745871;79;27705;-64
2020/12/14 10:19:16;;;;;;;171.90;55.73;;;;;;;5.58;83.58;100857.34;1761870;78;25781;-62
2020/12/14 10:21:44;;;;;;;172.85;58.08;;;;;;;5.62;83.60;100856.38;1764067;79;25863;-63
2020/12/14 10:24:14;;;;;;;169.70;57.27;;;;;;;5.64;83.54;100856.35;1764599;78;26015;-63
2020/12/14 10:26:41;;;;;;;175.93;56.10;;;;;;;5.65;83.58;100851.00;1742853;79;26092;-62
2020/12/14 10:29:09;;;;;;;151.97;51.60;;;;;;;5.71;83.62;100849.55;1754246;79;28442;-63
2020/12/14 10:31:37;;;;;;;156.37;53.25;;;;;;;5.78;83.61;100852.51;1749557;78;25826;-62
2020/12/14 10:34:04;;;;;;;168.60;54.83;;;;;;;5.82;83.54;100857.31;1758466;78;25779;-62
2020/12/14 10:36:32;;;;;;;180.78;60.33;;;;;;;5.91;83.67;100853.16;1747087;78;25774;-62
2020/12/14 10:39:00;;;;;;;167.37;59.58;;;;;;;5.96;83.62;100844.63;1772038;78;26482;-63
2020/12/14 10:41:28;;;;;;;160.20;54.88;;;;;;;6.05;83.64;100840.44;1757673;78;27902;-63
2020/12/14 10:43:56;;;;;;;148.85;53.70;;;;;;;6.12;83.60;100842.06;1759527;79;25902;-63
2020/12/14 10:46:25;;;;;;;156.50;51.30;;;;;;;6.12;83.50;100839.86;1768504;78;25822;-63
2020/12/14 10:48:53;;;;;;;165.00;56.88;;;;;;;6.06;83.29;100838.66;1778945;79;26139;-62
2020/12/14 10:51:20;;;;;;;160.75;54.88;;;;;;;6.03;83.40;100835.61;1762057;78;25868;-63
2020/12/14 10:53:48;;;;;;;159.03;55.70;;;;;;;6.10;83.48;100830.58;1758352;78;27773;-63
2020/12/14 10:56:16;;;;;;;171.70;57.38;;;;;;;6.17;83.53;100828.66;1780167;78;25943;-63
2020/12/14 10:58:48;;;;;;;169.57;55.33;;;;;;;6.26;83.60;100833.77;1781471;78;26267;-62
2020/12/14 11:01:16;;;;;;;163.22;54.75;;;;;;;6.41;83.65;100832.09;1756840;78;25960;-63
2020/12/14 11:03:44;;;;;;;158.90;59.30;;;;;;;6.41;83.33;100832.09;1765673;78;25958;-62
2020/12/14 11:06:12;;;;;;;163.70;56.10;;;;;;;6.41;83.35;100833.87;1776061;78;25889;-62
2020/12/14 11:08:40;;;;;;;155.52;55.95;;;;;;;6.44;83.40;100836.47;1753424;79;26099;-63
2020/12/14 11:11:07;;;;;;;155.52;52.50;;;;;;;6.41;83.27;100833.87;1795667;78;25812;-62
2020/12/14 11:13:35;;;;;;;171.07;52.98;;;;;;;6.41;83.30;100832.55;1760560;78;25882;-64
2020/12/14 11:16:03;;;;;;;153.00;56.02;;;;;;;6.43;83.28;100830.27;1745856;79;26409;-62
2020/12/14 11:18:30;;;;;;;157.82;55.20;;;;;;;6.45;83.27;100824.45;1763195;78;27820;-63
2020/12/14 11:20:58;;;;;;;161.95;58.35;;;;;;;6.48;83.27;100825.70;1748140;79;25865;-61
2020/12/14 11:23:26;;;;;;;159.27;58.80;;;;;;;6.50;83.23;100816.35;1732476;80;25786;-61